sensor_id;sensor_type;location;lat;lon;timestamp;P1;durP1;ratioP1;P2;durP2;ratioP2
60014;SDS011;45867;52.480;6.056;2023-07-31T00:01:21;3.72;;;1.67;;
60014;SDS011;45867;52.480;6.056;2023-07-31T00:03:57;5.43;;;1.80;;
60014;SDS011;45867;52.480;6.056;2023-07-31T00:06:32;3.13;;;1.85;;
60014;SDS011;45867;52.480;6.056;2023-07-31T00:08:59;3.45;;;1.50;;
60014;SDS011;45867;52.480;6.056;2023-07-31T00:11:31;2.13;;;1.38;;
60014;SDS011;45867;52.480;6.056;2023-07-31T00:16:24;4.25;;;1.73;;
60014;SDS011;45867;52.480;6.056;2023-07-31T00:18:54;3.25;;;1.33;;
60014;SDS011;45867;52.480;6.056;2023-07-31T00:21:26;1.95;;;1.20;;
60014;SDS011;45867;52.480;6.056;2023-07-31T00:23:56;1.67;;;1.10;;
60014;SDS011;45867;52.480;6.056;2023-07-31T00:26:22;1.88;;;1.10;;
60014;SDS011;45867;52.480;6.056;2023-07-31T00:28:52;4.15;;;1.20;;
60014;SDS011;45867;52.480;6.056;2023-07-31T00:31:21;3.17;;;1.27;;
60014;SDS011;45867;52.480;6.056;2023-07-31T00:33:48;2.83;;;1.30;;
60014;SDS011;45867;52.480;6.056;2023-07-31T00:36:17;2.33;;;1.35;;
60014;SDS011;45867;52.480;6.056;2023-07-31T00:38:43;2.20;;;0.85;;
60014;SDS011;45867;52.480;6.056;2023-07-31T00:41:13;3.83;;;1.30;;
60014;SDS011;45867;52.480;6.056;2023-07-31T00:43:42;2.53;;;1.08;;
60014;SDS011;45867;52.480;6.056;2023-07-31T00:46:08;2.67;;;1.00;;
60014;SDS011;45867;52.480;6.056;2023-07-31T00:48:35;1.88;;;0.93;;
60014;SDS011;45867;52.480;6.056;2023-07-31T00:51:06;1.85;;;1.10;;
60014;SDS011;45867;52.480;6.056;2023-07-31T00:53:34;1.13;;;0.80;;
60014;SDS011;45867;52.480;6.056;2023-07-31T00:56:01;1.33;;;1.00;;
60014;SDS011;45867;52.480;6.056;2023-07-31T00:58:33;1.45;;;1.02;;
60014;SDS011;45867;52.480;6.056;2023-07-31T01:01:08;2.30;;;1.10;;
60014;SDS011;45867;52.480;6.056;2023-07-31T01:03:52;1.90;;;1.10;;
60014;SDS011;45867;52.480;6.056;2023-07-31T01:12:45;2.85;;;1.27;;
60014;SDS011;45867;52.480;6.056;2023-07-31T01:15:11;3.13;;;1.25;;
60014;SDS011;45867;52.480;6.056;2023-07-31T01:17:42;1.67;;;1.15;;
60014;SDS011;45867;52.480;6.056;2023-07-31T01:20:17;4.65;;;1.45;;
60014;SDS011;45867;52.480;6.056;2023-07-31T01:28:32;3.22;;;1.50;;
60014;SDS011;45867;52.480;6.056;2023-07-31T01:31:13;4.07;;;1.60;;
60014;SDS011;45867;52.480;6.056;2023-07-31T01:33:42;2.25;;;1.30;;
60014;SDS011;45867;52.480;6.056;2023-07-31T01:36:14;4.38;;;2.00;;
60014;SDS011;45867;52.480;6.056;2023-07-31T01:38:41;5.07;;;1.92;;
60014;SDS011;45867;52.480;6.056;2023-07-31T01:41:11;3.45;;;1.67;;
60014;SDS011;45867;52.480;6.056;2023-07-31T01:43:40;6.00;;;1.83;;
60014;SDS011;45867;52.480;6.056;2023-07-31T01:46:07;4.15;;;1.80;;
60014;SDS011;45867;52.480;6.056;2023-07-31T01:48:33;2.53;;;1.63;;
60014;SDS011;45867;52.480;6.056;2023-07-31T01:51:00;3.72;;;1.70;;
60014;SDS011;45867;52.480;6.056;2023-07-31T01:53:26;2.92;;;1.70;;
60014;SDS011;45867;52.480;6.056;2023-07-31T01:55:54;4.80;;;1.92;;
60014;SDS011;45867;52.480;6.056;2023-07-31T01:58:20;4.60;;;1.98;;
60014;SDS011;45867;52.480;6.056;2023-07-31T02:00:47;5.10;;;1.80;;
60014;SDS011;45867;52.480;6.056;2023-07-31T02:03:13;2.92;;;1.55;;
60014;SDS011;45867;52.480;6.056;2023-07-31T02:05:49;2.55;;;1.50;;
60014;SDS011;45867;52.480;6.056;2023-07-31T02:08:16;4.22;;;1.80;;
60014;SDS011;45867;52.480;6.056;2023-07-31T02:10:45;3.85;;;1.60;;
60014;SDS011;45867;52.480;6.056;2023-07-31T02:13:14;5.82;;;1.90;;
60014;SDS011;45867;52.480;6.056;2023-07-31T02:15:41;4.82;;;2.08;;
60014;SDS011;45867;52.480;6.056;2023-07-31T02:18:10;7.57;;;2.20;;
60014;SDS011;45867;52.480;6.056;2023-07-31T02:20:37;4.32;;;1.98;;
60014;SDS011;45867;52.480;6.056;2023-07-31T02:23:03;4.35;;;1.80;;
60014;SDS011;45867;52.480;6.056;2023-07-31T02:25:36;4.95;;;2.10;;
60014;SDS011;45867;52.480;6.056;2023-07-31T02:28:05;4.97;;;1.90;;
60014;SDS011;45867;52.480;6.056;2023-07-31T02:30:32;3.28;;;1.63;;
60014;SDS011;45867;52.480;6.056;2023-07-31T02:33:01;4.85;;;2.10;;
60014;SDS011;45867;52.480;6.056;2023-07-31T02:35:30;2.83;;;1.80;;
60014;SDS011;45867;52.480;6.056;2023-07-31T02:37:59;6.90;;;2.00;;
60014;SDS011;45867;52.480;6.056;2023-07-31T02:40:28;3.92;;;2.08;;
60014;SDS011;45867;52.480;6.056;2023-07-31T02:43:00;5.85;;;2.20;;
60014;SDS011;45867;52.480;6.056;2023-07-31T02:45:29;4.53;;;1.90;;
60014;SDS011;45867;52.480;6.056;2023-07-31T02:47:56;5.43;;;2.17;;
60014;SDS011;45867;52.480;6.056;2023-07-31T02:50:25;6.57;;;2.50;;
60014;SDS011;45867;52.480;6.056;2023-07-31T02:52:51;6.78;;;2.20;;
60014;SDS011;45867;52.480;6.056;2023-07-31T02:55:20;7.68;;;2.10;;
60014;SDS011;45867;52.480;6.056;2023-07-31T02:57:57;10.57;;;2.67;;
60014;SDS011;45867;52.480;6.056;2023-07-31T03:00:27;13.25;;;2.88;;
60014;SDS011;45867;52.480;6.056;2023-07-31T03:02:56;12.32;;;2.85;;
60014;SDS011;45867;52.480;6.056;2023-07-31T03:05:25;10.45;;;2.70;;
60014;SDS011;45867;52.480;6.056;2023-07-31T03:07:51;10.77;;;3.60;;
60014;SDS011;45867;52.480;6.056;2023-07-31T03:10:18;12.35;;;3.80;;
60014;SDS011;45867;52.480;6.056;2023-07-31T03:12:46;10.77;;;3.97;;
60014;SDS011;45867;52.480;6.056;2023-07-31T03:15:15;12.27;;;3.85;;
60014;SDS011;45867;52.480;6.056;2023-07-31T03:17:42;15.60;;;4.45;;
60014;SDS011;45867;52.480;6.056;2023-07-31T03:20:10;20.90;;;4.93;;
60014;SDS011;45867;52.480;6.056;2023-07-31T03:22:41;25.50;;;4.63;;
60014;SDS011;45867;52.480;6.056;2023-07-31T03:25:08;18.67;;;4.63;;
60014;SDS011;45867;52.480;6.056;2023-07-31T03:27:37;21.17;;;4.55;;
60014;SDS011;45867;52.480;6.056;2023-07-31T03:30:06;22.00;;;5.28;;
60014;SDS011;45867;52.480;6.056;2023-07-31T03:32:34;16.17;;;5.20;;
60014;SDS011;45867;52.480;6.056;2023-07-31T03:35:04;20.17;;;5.55;;
60014;SDS011;45867;52.480;6.056;2023-07-31T03:37:37;26.00;;;5.82;;
60014;SDS011;45867;52.480;6.056;2023-07-31T03:40:06;16.33;;;5.57;;
60014;SDS011;45867;52.480;6.056;2023-07-31T03:42:35;29.83;;;6.18;;
60014;SDS011;45867;52.480;6.056;2023-07-31T03:45:07;28.77;;;6.30;;
60014;SDS011;45867;52.480;6.056;2023-07-31T03:47:47;19.45;;;6.18;;
60014;SDS011;45867;52.480;6.056;2023-07-31T03:50:31;25.70;;;6.30;;
60014;SDS011;45867;52.480;6.056;2023-07-31T03:53:20;30.75;;;6.53;;
60014;SDS011;45867;52.480;6.056;2023-07-31T03:56:36;21.80;;;6.28;;
60014;SDS011;45867;52.480;6.056;2023-07-31T03:59:08;30.85;;;6.72;;
60014;SDS011;45867;52.480;6.056;2023-07-31T04:01:37;34.17;;;6.53;;
60014;SDS011;45867;52.480;6.056;2023-07-31T04:04:04;28.20;;;6.45;;
60014;SDS011;45867;52.480;6.056;2023-07-31T04:06:30;31.45;;;6.15;;
60014;SDS011;45867;52.480;6.056;2023-07-31T04:08:58;31.05;;;6.60;;
60014;SDS011;45867;52.480;6.056;2023-07-31T04:11:36;28.27;;;6.40;;
60014;SDS011;45867;52.480;6.056;2023-07-31T04:14:07;32.57;;;6.77;;
60014;SDS011;45867;52.480;6.056;2023-07-31T04:16:35;31.90;;;7.07;;
60014;SDS011;45867;52.480;6.056;2023-07-31T04:19:04;34.63;;;7.20;;
60014;SDS011;45867;52.480;6.056;2023-07-31T04:21:34;26.83;;;6.65;;
60014;SDS011;45867;52.480;6.056;2023-07-31T04:24:00;35.35;;;7.43;;
60014;SDS011;45867;52.480;6.056;2023-07-31T04:26:27;33.13;;;6.85;;
60014;SDS011;45867;52.480;6.056;2023-07-31T04:28:57;25.85;;;6.93;;
60014;SDS011;45867;52.480;6.056;2023-07-31T04:31:26;24.10;;;6.63;;
60014;SDS011;45867;52.480;6.056;2023-07-31T04:33:55;33.28;;;7.32;;
60014;SDS011;45867;52.480;6.056;2023-07-31T04:36:25;27.83;;;6.70;;
60014;SDS011;45867;52.480;6.056;2023-07-31T04:39:05;29.98;;;6.57;;
60014;SDS011;45867;52.480;6.056;2023-07-31T04:41:38;25.75;;;6.47;;
60014;SDS011;45867;52.480;6.056;2023-07-31T04:44:05;31.30;;;7.70;;
60014;SDS011;45867;52.480;6.056;2023-07-31T04:46:31;25.63;;;6.47;;
60014;SDS011;45867;52.480;6.056;2023-07-31T04:49:00;26.25;;;5.97;;
60014;SDS011;45867;52.480;6.056;2023-07-31T04:51:29;37.83;;;7.22;;
60014;SDS011;45867;52.480;6.056;2023-07-31T04:54:02;25.48;;;6.13;;
60014;SDS011;45867;52.480;6.056;2023-07-31T04:56:29;41.15;;;7.47;;
60014;SDS011;45867;52.480;6.056;2023-07-31T04:58:58;35.72;;;7.07;;
60014;SDS011;45867;52.480;6.056;2023-07-31T05:01:27;34.33;;;7.22;;
60014;SDS011;45867;52.480;6.056;2023-07-31T05:03:59;28.25;;;7.15;;
60014;SDS011;45867;52.480;6.056;2023-07-31T05:06:27;29.65;;;7.55;;
60014;SDS011;45867;52.480;6.056;2023-07-31T05:08:57;31.75;;;7.47;;
60014;SDS011;45867;52.480;6.056;2023-07-31T05:11:29;28.00;;;6.78;;
60014;SDS011;45867;52.480;6.056;2023-07-31T05:14:02;25.35;;;6.22;;
60014;SDS011;45867;52.480;6.056;2023-07-31T05:16:29;29.95;;;7.43;;
60014;SDS011;45867;52.480;6.056;2023-07-31T05:18:57;28.33;;;7.03;;
60014;SDS011;45867;52.480;6.056;2023-07-31T05:21:31;30.13;;;7.75;;
60014;SDS011;45867;52.480;6.056;2023-07-31T05:23:57;44.75;;;7.50;;
60014;SDS011;45867;52.480;6.056;2023-07-31T05:26:30;34.55;;;7.55;;
60014;SDS011;45867;52.480;6.056;2023-07-31T05:29:11;30.47;;;7.87;;
60014;SDS011;45867;52.480;6.056;2023-07-31T05:31:58;38.05;;;8.20;;
60014;SDS011;45867;52.480;6.056;2023-07-31T05:34:25;26.13;;;7.63;;
60014;SDS011;45867;52.480;6.056;2023-07-31T05:37:25;27.13;;;7.22;;
60014;SDS011;45867;52.480;6.056;2023-07-31T05:39:51;24.83;;;6.70;;
60014;SDS011;45867;52.480;6.056;2023-07-31T05:42:25;42.25;;;9.77;;
60014;SDS011;45867;52.480;6.056;2023-07-31T05:44:58;29.08;;;7.55;;
60014;SDS011;45867;52.480;6.056;2023-07-31T05:47:28;22.63;;;6.60;;
60014;SDS011;45867;52.480;6.056;2023-07-31T05:49:54;24.02;;;6.00;;
60014;SDS011;45867;52.480;6.056;2023-07-31T05:52:21;24.35;;;6.82;;
60014;SDS011;45867;52.480;6.056;2023-07-31T05:54:58;19.67;;;6.18;;
60014;SDS011;45867;52.480;6.056;2023-07-31T05:57:24;21.58;;;7.10;;
60014;SDS011;45867;52.480;6.056;2023-07-31T05:59:57;27.10;;;6.13;;
60014;SDS011;45867;52.480;6.056;2023-07-31T06:02:27;23.70;;;6.63;;
60014;SDS011;45867;52.480;6.056;2023-07-31T06:04:55;17.95;;;4.72;;
60014;SDS011;45867;52.480;6.056;2023-07-31T06:07:33;16.67;;;5.53;;
60014;SDS011;45867;52.480;6.056;2023-07-31T06:10:14;16.67;;;5.18;;
60014;SDS011;45867;52.480;6.056;2023-07-31T06:12:44;19.85;;;6.28;;
60014;SDS011;45867;52.480;6.056;2023-07-31T06:15:19;18.38;;;5.47;;
60014;SDS011;45867;52.480;6.056;2023-07-31T06:17:46;15.57;;;5.47;;
60014;SDS011;45867;52.480;6.056;2023-07-31T06:20:13;20.55;;;5.40;;
60014;SDS011;45867;52.480;6.056;2023-07-31T06:22:45;18.73;;;5.50;;
60014;SDS011;45867;52.480;6.056;2023-07-31T06:25:12;19.60;;;5.78;;
60014;SDS011;45867;52.480;6.056;2023-07-31T06:27:47;12.32;;;4.22;;
60014;SDS011;45867;52.480;6.056;2023-07-31T06:30:16;18.00;;;4.80;;
60014;SDS011;45867;52.480;6.056;2023-07-31T06:32:50;16.10;;;4.75;;
60014;SDS011;45867;52.480;6.056;2023-07-31T06:38:52;10.63;;;4.13;;
60014;SDS011;45867;52.480;6.056;2023-07-31T06:41:21;10.02;;;3.60;;
60014;SDS011;45867;52.480;6.056;2023-07-31T06:47:41;8.02;;;3.45;;
60014;SDS011;45867;52.480;6.056;2023-07-31T06:50:26;10.27;;;3.40;;
60014;SDS011;45867;52.480;6.056;2023-07-31T06:53:15;8.40;;;2.90;;
60014;SDS011;45867;52.480;6.056;2023-07-31T06:55:46;8.60;;;3.50;;
60014;SDS011;45867;52.480;6.056;2023-07-31T07:01:31;6.57;;;3.03;;
60014;SDS011;45867;52.480;6.056;2023-07-31T07:03:57;5.88;;;2.78;;
60014;SDS011;45867;52.480;6.056;2023-07-31T07:06:31;8.10;;;3.35;;
60014;SDS011;45867;52.480;6.056;2023-07-31T07:08:58;7.53;;;2.70;;
60014;SDS011;45867;52.480;6.056;2023-07-31T07:15:06;5.72;;;2.65;;
60014;SDS011;45867;52.480;6.056;2023-07-31T07:23:50;8.27;;;3.10;;
60014;SDS011;45867;52.480;6.056;2023-07-31T07:29:50;11.50;;;3.13;;
60014;SDS011;45867;52.480;6.056;2023-07-31T07:32:43;7.40;;;2.80;;
60014;SDS011;45867;52.480;6.056;2023-07-31T07:38:21;5.63;;;2.67;;
60014;SDS011;45867;52.480;6.056;2023-07-31T07:40:56;5.97;;;2.67;;
60014;SDS011;45867;52.480;6.056;2023-07-31T07:43:22;6.35;;;2.45;;
60014;SDS011;45867;52.480;6.056;2023-07-31T07:50:22;6.65;;;2.63;;
60014;SDS011;45867;52.480;6.056;2023-07-31T07:53:15;4.10;;;2.22;;
60014;SDS011;45867;52.480;6.056;2023-07-31T07:55:41;8.55;;;2.88;;
60014;SDS011;45867;52.480;6.056;2023-07-31T07:58:08;6.07;;;2.40;;
60014;SDS011;45867;52.480;6.056;2023-07-31T08:01:15;5.75;;;2.13;;
60014;SDS011;45867;52.480;6.056;2023-07-31T08:03:47;3.80;;;2.20;;
60014;SDS011;45867;52.480;6.056;2023-07-31T08:09:16;7.25;;;2.33;;
60014;SDS011;45867;52.480;6.056;2023-07-31T08:15:04;6.97;;;2.30;;
60014;SDS011;45867;52.480;6.056;2023-07-31T08:18:18;5.30;;;2.20;;
60014;SDS011;45867;52.480;6.056;2023-07-31T08:20:51;6.13;;;2.13;;
60014;SDS011;45867;52.480;6.056;2023-07-31T08:23:40;3.38;;;2.10;;
60014;SDS011;45867;52.480;6.056;2023-07-31T08:26:07;3.22;;;1.88;;
60014;SDS011;45867;52.480;6.056;2023-07-31T08:28:40;4.70;;;2.20;;
60014;SDS011;45867;52.480;6.056;2023-07-31T08:31:27;3.92;;;2.42;;
60014;SDS011;45867;52.480;6.056;2023-07-31T08:34:32;3.88;;;1.90;;
60014;SDS011;45867;52.480;6.056;2023-07-31T08:37:03;3.00;;;1.70;;
60014;SDS011;45867;52.480;6.056;2023-07-31T08:43:19;4.07;;;1.73;;
60014;SDS011;45867;52.480;6.056;2023-07-31T08:45:46;6.50;;;1.65;;
60014;SDS011;45867;52.480;6.056;2023-07-31T08:48:17;7.18;;;1.77;;
60014;SDS011;45867;52.480;6.056;2023-07-31T08:50:50;3.13;;;1.60;;
60014;SDS011;45867;52.480;6.056;2023-07-31T08:53:26;5.38;;;1.75;;
60014;SDS011;45867;52.480;6.056;2023-07-31T08:56:12;4.65;;;1.90;;
60014;SDS011;45867;52.480;6.056;2023-07-31T08:59:13;2.97;;;1.63;;
60014;SDS011;45867;52.480;6.056;2023-07-31T09:01:43;5.05;;;1.90;;
60014;SDS011;45867;52.480;6.056;2023-07-31T09:04:38;2.13;;;1.60;;
60014;SDS011;45867;52.480;6.056;2023-07-31T09:10:00;2.97;;;1.80;;
60014;SDS011;45867;52.480;6.056;2023-07-31T09:12:30;3.80;;;1.75;;
60014;SDS011;45867;52.480;6.056;2023-07-31T09:15:00;3.15;;;2.00;;
60014;SDS011;45867;52.480;6.056;2023-07-31T09:17:33;2.97;;;2.10;;
60014;SDS011;45867;52.480;6.056;2023-07-31T09:20:16;2.60;;;1.63;;
60014;SDS011;45867;52.480;6.056;2023-07-31T09:22:47;3.92;;;2.08;;
60014;SDS011;45867;52.480;6.056;2023-07-31T09:25:18;4.43;;;1.88;;
60014;SDS011;45867;52.480;6.056;2023-07-31T09:27:46;3.05;;;1.70;;
60014;SDS011;45867;52.480;6.056;2023-07-31T09:30:43;2.67;;;1.73;;
60014;SDS011;45867;52.480;6.056;2023-07-31T09:33:21;3.28;;;1.60;;
60014;SDS011;45867;52.480;6.056;2023-07-31T09:35:47;4.53;;;1.63;;
60014;SDS011;45867;52.480;6.056;2023-07-31T09:38:15;3.65;;;1.50;;
60014;SDS011;45867;52.480;6.056;2023-07-31T09:40:44;3.85;;;1.80;;
60014;SDS011;45867;52.480;6.056;2023-07-31T09:43:13;1.25;;;1.10;;
60014;SDS011;45867;52.480;6.056;2023-07-31T09:45:47;2.28;;;1.30;;
60014;SDS011;45867;52.480;6.056;2023-07-31T09:48:18;1.77;;;1.45;;
60014;SDS011;45867;52.480;6.056;2023-07-31T09:50:52;2.75;;;1.30;;
60014;SDS011;45867;52.480;6.056;2023-07-31T09:53:42;2.90;;;1.52;;
60014;SDS011;45867;52.480;6.056;2023-07-31T09:56:36;1.92;;;1.33;;
60014;SDS011;45867;52.480;6.056;2023-07-31T09:59:05;3.20;;;1.80;;
60014;SDS011;45867;52.480;6.056;2023-07-31T10:01:32;2.22;;;1.20;;
60014;SDS011;45867;52.480;6.056;2023-07-31T10:04:02;2.42;;;1.60;;
60014;SDS011;45867;52.480;6.056;2023-07-31T10:13:14;1.75;;;1.27;;
60014;SDS011;45867;52.480;6.056;2023-07-31T10:18:46;3.47;;;1.40;;
60014;SDS011;45867;52.480;6.056;2023-07-31T10:21:14;2.17;;;1.55;;
60014;SDS011;45867;52.480;6.056;2023-07-31T10:23:46;3.30;;;1.30;;
60014;SDS011;45867;52.480;6.056;2023-07-31T10:26:13;1.50;;;1.40;;
60014;SDS011;45867;52.480;6.056;2023-07-31T10:28:43;4.38;;;1.30;;
60014;SDS011;45867;52.480;6.056;2023-07-31T10:31:15;2.03;;;1.25;;
60014;SDS011;45867;52.480;6.056;2023-07-31T10:34:20;2.38;;;1.30;;
60014;SDS011;45867;52.480;6.056;2023-07-31T10:37:19;2.03;;;1.30;;
60014;SDS011;45867;52.480;6.056;2023-07-31T10:40:19;1.98;;;1.30;;
60014;SDS011;45867;52.480;6.056;2023-07-31T10:43:09;2.75;;;1.40;;
60014;SDS011;45867;52.480;6.056;2023-07-31T10:45:52;2.60;;;1.40;;
60014;SDS011;45867;52.480;6.056;2023-07-31T10:48:24;1.55;;;1.30;;
60014;SDS011;45867;52.480;6.056;2023-07-31T10:51:06;1.92;;;1.30;;
60014;SDS011;45867;52.480;6.056;2023-07-31T10:53:37;1.55;;;1.10;;
60014;SDS011;45867;52.480;6.056;2023-07-31T10:56:09;1.40;;;1.30;;
60014;SDS011;45867;52.480;6.056;2023-07-31T10:58:36;1.48;;;1.30;;
60014;SDS011;45867;52.480;6.056;2023-07-31T11:07:59;1.65;;;1.50;;
60014;SDS011;45867;52.480;6.056;2023-07-31T11:10:37;2.78;;;1.67;;
60014;SDS011;45867;52.480;6.056;2023-07-31T11:13:11;2.10;;;1.63;;
60014;SDS011;45867;52.480;6.056;2023-07-31T11:19:24;2.53;;;1.58;;
60014;SDS011;45867;52.480;6.056;2023-07-31T11:24:25;4.80;;;1.98;;
60014;SDS011;45867;52.480;6.056;2023-07-31T11:27:13;3.22;;;1.90;;
60014;SDS011;45867;52.480;6.056;2023-07-31T11:29:42;3.55;;;2.00;;
60014;SDS011;45867;52.480;6.056;2023-07-31T11:32:15;4.05;;;2.22;;
60014;SDS011;45867;52.480;6.056;2023-07-31T11:38:03;4.07;;;2.22;;
60014;SDS011;45867;52.480;6.056;2023-07-31T11:40:43;4.88;;;2.35;;
60014;SDS011;45867;52.480;6.056;2023-07-31T11:43:13;4.68;;;2.28;;
60014;SDS011;45867;52.480;6.056;2023-07-31T11:45:39;3.50;;;2.28;;
60014;SDS011;45867;52.480;6.056;2023-07-31T11:48:06;3.38;;;1.88;;
60014;SDS011;45867;52.480;6.056;2023-07-31T11:50:33;4.18;;;2.38;;
60014;SDS011;45867;52.480;6.056;2023-07-31T11:53:07;3.40;;;1.70;;
60014;SDS011;45867;52.480;6.056;2023-07-31T11:59:29;3.75;;;1.80;;
60014;SDS011;45867;52.480;6.056;2023-07-31T12:02:38;3.80;;;2.20;;
60014;SDS011;45867;52.480;6.056;2023-07-31T12:05:49;3.13;;;2.05;;
60014;SDS011;45867;52.480;6.056;2023-07-31T12:12:19;3.97;;;2.08;;
60014;SDS011;45867;52.480;6.056;2023-07-31T12:14:46;4.30;;;2.40;;
60014;SDS011;45867;52.480;6.056;2023-07-31T12:20:32;5.00;;;2.75;;
60014;SDS011;45867;52.480;6.056;2023-07-31T12:23:00;3.30;;;2.03;;
60014;SDS011;45867;52.480;6.056;2023-07-31T12:25:33;4.45;;;2.60;;
60014;SDS011;45867;52.480;6.056;2023-07-31T12:28:06;6.03;;;2.45;;
60014;SDS011;45867;52.480;6.056;2023-07-31T12:30:37;5.22;;;2.40;;
60014;SDS011;45867;52.480;6.056;2023-07-31T12:33:15;3.42;;;2.35;;
60014;SDS011;45867;52.480;6.056;2023-07-31T12:35:45;8.20;;;2.58;;
60014;SDS011;45867;52.480;6.056;2023-07-31T12:38:17;6.22;;;2.70;;
60014;SDS011;45867;52.480;6.056;2023-07-31T12:40:50;3.78;;;2.20;;
60014;SDS011;45867;52.480;6.056;2023-07-31T12:43:34;4.38;;;2.60;;
60014;SDS011;45867;52.480;6.056;2023-07-31T12:46:05;3.47;;;2.65;;
60014;SDS011;45867;52.480;6.056;2023-07-31T12:48:34;8.05;;;3.20;;
60014;SDS011;45867;52.480;6.056;2023-07-31T12:51:08;4.97;;;2.60;;
60014;SDS011;45867;52.480;6.056;2023-07-31T12:53:39;3.55;;;2.22;;
60014;SDS011;45867;52.480;6.056;2023-07-31T12:56:05;5.82;;;3.00;;
60014;SDS011;45867;52.480;6.056;2023-07-31T12:58:32;4.85;;;2.67;;
60014;SDS011;45867;52.480;6.056;2023-07-31T13:00:58;4.63;;;2.53;;
60014;SDS011;45867;52.480;6.056;2023-07-31T13:03:31;5.25;;;2.67;;
60014;SDS011;45867;52.480;6.056;2023-07-31T13:06:17;4.43;;;2.58;;
60014;SDS011;45867;52.480;6.056;2023-07-31T13:08:44;3.55;;;2.33;;
60014;SDS011;45867;52.480;6.056;2023-07-31T13:11:11;6.35;;;2.72;;
60014;SDS011;45867;52.480;6.056;2023-07-31T13:13:37;3.45;;;2.20;;
60014;SDS011;45867;52.480;6.056;2023-07-31T13:16:06;4.32;;;2.03;;
60014;SDS011;45867;52.480;6.056;2023-07-31T13:21:23;4.88;;;2.00;;
60014;SDS011;45867;52.480;6.056;2023-07-31T13:24:00;7.28;;;2.33;;
60014;SDS011;45867;52.480;6.056;2023-07-31T13:26:26;3.45;;;2.08;;
60014;SDS011;45867;52.480;6.056;2023-07-31T13:28:56;8.90;;;2.50;;
60014;SDS011;45867;52.480;6.056;2023-07-31T13:31:25;3.25;;;2.00;;
60014;SDS011;45867;52.480;6.056;2023-07-31T13:34:00;6.13;;;2.40;;
60014;SDS011;45867;52.480;6.056;2023-07-31T13:36:30;4.55;;;2.40;;
60014;SDS011;45867;52.480;6.056;2023-07-31T13:39:13;3.47;;;2.35;;
60014;SDS011;45867;52.480;6.056;2023-07-31T13:41:43;4.10;;;2.22;;
60014;SDS011;45867;52.480;6.056;2023-07-31T13:44:09;5.32;;;2.70;;
60014;SDS011;45867;52.480;6.056;2023-07-31T13:46:36;9.23;;;2.45;;
60014;SDS011;45867;52.480;6.056;2023-07-31T13:49:04;3.75;;;2.08;;
60014;SDS011;45867;52.480;6.056;2023-07-31T13:51:31;6.22;;;2.40;;
60014;SDS011;45867;52.480;6.056;2023-07-31T13:53:59;6.57;;;2.53;;
60014;SDS011;45867;52.480;6.056;2023-07-31T13:56:25;4.07;;;2.30;;
60014;SDS011;45867;52.480;6.056;2023-07-31T13:58:56;6.57;;;2.40;;
60014;SDS011;45867;52.480;6.056;2023-07-31T14:01:25;4.90;;;2.25;;
60014;SDS011;45867;52.480;6.056;2023-07-31T14:03:58;3.90;;;2.17;;
60014;SDS011;45867;52.480;6.056;2023-07-31T14:06:45;5.30;;;2.53;;
60014;SDS011;45867;52.480;6.056;2023-07-31T14:09:12;4.65;;;2.30;;
60014;SDS011;45867;52.480;6.056;2023-07-31T14:11:41;7.35;;;2.67;;
60014;SDS011;45867;52.480;6.056;2023-07-31T14:14:14;7.35;;;2.60;;
60014;SDS011;45867;52.480;6.056;2023-07-31T14:16:41;3.70;;;2.33;;
60014;SDS011;45867;52.480;6.056;2023-07-31T14:19:10;4.25;;;2.60;;
60014;SDS011;45867;52.480;6.056;2023-07-31T14:21:44;5.40;;;2.53;;
60014;SDS011;45867;52.480;6.056;2023-07-31T14:27:10;4.82;;;2.90;;
60014;SDS011;45867;52.480;6.056;2023-07-31T14:29:37;4.63;;;2.40;;
60014;SDS011;45867;52.480;6.056;2023-07-31T14:32:15;7.70;;;2.80;;
60014;SDS011;45867;52.480;6.056;2023-07-31T14:34:42;6.72;;;2.60;;
60014;SDS011;45867;52.480;6.056;2023-07-31T14:37:09;5.80;;;2.80;;
60014;SDS011;45867;52.480;6.056;2023-07-31T14:39:43;10.15;;;2.60;;
60014;SDS011;45867;52.480;6.056;2023-07-31T14:45:12;9.98;;;3.40;;
60014;SDS011;45867;52.480;6.056;2023-07-31T14:47:41;6.38;;;3.30;;
60014;SDS011;45867;52.480;6.056;2023-07-31T14:50:07;8.32;;;3.20;;
60014;SDS011;45867;52.480;6.056;2023-07-31T14:55:34;6.80;;;3.28;;
60014;SDS011;45867;52.480;6.056;2023-07-31T14:58:03;5.70;;;3.47;;
60014;SDS011;45867;52.480;6.056;2023-07-31T15:00:30;10.07;;;3.95;;
60014;SDS011;45867;52.480;6.056;2023-07-31T15:02:56;5.28;;;3.17;;
60014;SDS011;45867;52.480;6.056;2023-07-31T15:05:26;4.38;;;2.92;;
60014;SDS011;45867;52.480;6.056;2023-07-31T15:08:20;5.85;;;2.95;;
60014;SDS011;45867;52.480;6.056;2023-07-31T15:11:09;5.45;;;2.67;;
60014;SDS011;45867;52.480;6.056;2023-07-31T15:13:36;3.95;;;2.70;;
60014;SDS011;45867;52.480;6.056;2023-07-31T15:16:12;6.38;;;2.58;;
60014;SDS011;45867;52.480;6.056;2023-07-31T15:18:39;4.65;;;2.58;;
60014;SDS011;45867;52.480;6.056;2023-07-31T15:21:06;3.08;;;2.28;;
60014;SDS011;45867;52.480;6.056;2023-07-31T15:23:33;3.22;;;2.30;;
60014;SDS011;45867;52.480;6.056;2023-07-31T15:26:00;4.32;;;2.50;;
60014;SDS011;45867;52.480;6.056;2023-07-31T15:28:26;3.40;;;2.33;;
60014;SDS011;45867;52.480;6.056;2023-07-31T15:31:02;3.65;;;2.30;;
60014;SDS011;45867;52.480;6.056;2023-07-31T15:33:35;4.32;;;2.47;;
60014;SDS011;45867;52.480;6.056;2023-07-31T15:46:15;22.75;;;2.35;;
60014;SDS011;45867;52.480;6.056;2023-07-31T15:48:56;11.13;;;1.60;;
60014;SDS011;45867;52.480;6.056;2023-07-31T15:51:29;8.45;;;1.50;;
60014;SDS011;45867;52.480;6.056;2023-07-31T15:59:57;5.45;;;1.75;;
60014;SDS011;45867;52.480;6.056;2023-07-31T16:02:27;4.15;;;1.83;;
60014;SDS011;45867;52.480;6.056;2023-07-31T16:04:59;3.35;;;1.67;;
60014;SDS011;45867;52.480;6.056;2023-07-31T16:07:29;5.93;;;1.90;;
60014;SDS011;45867;52.480;6.056;2023-07-31T16:09:58;4.90;;;2.00;;
60014;SDS011;45867;52.480;6.056;2023-07-31T16:12:28;5.68;;;1.83;;
60014;SDS011;45867;52.480;6.056;2023-07-31T16:15:19;3.30;;;1.67;;
60014;SDS011;45867;52.480;6.056;2023-07-31T16:17:46;4.63;;;1.77;;
60014;SDS011;45867;52.480;6.056;2023-07-31T16:20:13;3.90;;;1.83;;
60014;SDS011;45867;52.480;6.056;2023-07-31T16:22:42;21.58;;;1.60;;
60014;SDS011;45867;52.480;6.056;2023-07-31T16:25:12;4.55;;;1.80;;
60014;SDS011;45867;52.480;6.056;2023-07-31T16:27:46;3.38;;;1.25;;
60014;SDS011;45867;52.480;6.056;2023-07-31T16:33:11;2.70;;;1.50;;
60014;SDS011;45867;52.480;6.056;2023-07-31T16:35:38;4.78;;;1.27;;
60014;SDS011;45867;52.480;6.056;2023-07-31T16:38:07;15.07;;;1.42;;
60014;SDS011;45867;52.480;6.056;2023-07-31T16:40:36;2.20;;;1.00;;
60014;SDS011;45867;52.480;6.056;2023-07-31T16:43:06;4.28;;;1.05;;
60014;SDS011;45867;52.480;6.056;2023-07-31T16:45:55;5.82;;;1.20;;
60014;SDS011;45867;52.480;6.056;2023-07-31T16:48:25;2.67;;;1.40;;
60014;SDS011;45867;52.480;6.056;2023-07-31T16:50:58;7.57;;;1.17;;
60014;SDS011;45867;52.480;6.056;2023-07-31T16:53:31;4.68;;;1.40;;
60014;SDS011;45867;52.480;6.056;2023-07-31T16:58:46;1.85;;;1.10;;
60014;SDS011;45867;52.480;6.056;2023-07-31T17:09:05;1.70;;;0.90;;
60014;SDS011;45867;52.480;6.056;2023-07-31T17:11:47;1.17;;;0.93;;
60014;SDS011;45867;52.480;6.056;2023-07-31T17:14:25;3.60;;;1.38;;
60014;SDS011;45867;52.480;6.056;2023-07-31T17:17:31;2.22;;;1.17;;
60014;SDS011;45867;52.480;6.056;2023-07-31T17:20:34;10.48;;;1.15;;
60014;SDS011;45867;52.480;6.056;2023-07-31T17:23:22;10.68;;;1.50;;
60014;SDS011;45867;52.480;6.056;2023-07-31T17:33:12;2.40;;;1.10;;
60014;SDS011;45867;52.480;6.056;2023-07-31T17:39:45;6.22;;;1.05;;
60014;SDS011;45867;52.480;6.056;2023-07-31T17:45:15;2.38;;;1.27;;
60014;SDS011;45867;52.480;6.056;2023-07-31T17:51:17;2.88;;;1.30;;